Hovedside
METAR-TAF:

METAR-TAF

Lufthavner :

Prins Said Ibrahim internasjonale lufthavn

Moroni, Komorene

breddegrad: 11-32S, lengdegrad: 043-16E, høyde over havet: 29 m

Gjeldene værobservasjon

Denne rapporten ble laget for 1 time og 1 minutter siden, klokken 03:00 UTC
Vind 1 kt fra Sørøst
Temperatur 24°C
Luftfuktighet 78%
Trykk 1016 hPa
Sikt 10 km eller mer
Få skyer i en høyde av 1800 ft
Spredte skyer i en høyde av 2800 ft

METAR: FMCH 200300Z 14001KT 9999 FEW018 SCT028 24/20 Q1016 NOSIG

Tid: 07:01 (04:01 UTC)

Varsel

Denne rapporten ble laget for 5 timer og 1 minutter siden, klokken 23:00 UTC
Varsel gyldig fra 20. klokken 00 UTC til 21. klokken 06 UTC
Vind 3 kt fra Øst
Sikt 10 km eller mer
Få skyer i en høyde av 2000 ft
Blir
fra 20. klokken 05 UTC til 20. klokken 07 UTC
Vind 12 kt fra Sør
Blir
fra 20. klokken 16 UTC til 20. klokken 18 UTC
Vind 2 kt fra skiftende retning

TAF: FMCH 192300Z 2000/2106 10003KT 9999 FEW020 BECMG 2005/2007 17012KT BECMG 2016/2018 VRB02KT

Værobservasjoner og værvarsel for over 4000 flyplasser (METAR- og TAF-rapporter).

Tilgjengelige stasjoner er representert av de røde og gule prikkene på kartet.

Hold musepekeren over prikken for å se navnet på stasjonen.

Klikk så for å se værobservasjoner og -varsler.

For å forandre kartet kan du klikke på den grønne knappen med svart kryss for å zoome inn, på den grønne knappen med strek for å zoome ut, eller på de grønne pilene for å se tilstøtende kart.


METAR-TAF: